NDBC will be participating in PACIFEX26, a partner tabletop exercise with the Tsunami Warning Centers (TWCs) scheduled for May 05 at 1600 UTC. To simulate real-time tsunami observations, the exercise may involve activating Deep Ocean Assessment and Reporting of Tsunami (DART) buoys. For more information please see PNS26-39.

Station 44062 - Gooses Reef, MD Image indicating link to RSS feed of recent meteorological observations for station 44062


Conditions at 44062 as of
(1:36 am EDT)
0536 GMT on 05/06/2026:
     

Click on the graph icon in the table below to see a time series plot of the last five days of that observation.

5-day plot - Wind Direction Wind Direction (WDIR): S ( 170 deg true )
5-day plot - Wind Speed Wind Speed (WSPD): 15.5 kts
5-day plot - Wind Gust Wind Gust (GST): 21.4 kts
5-day plot - Wave Height Wave Height (WVHT): 1.3 ft
5-day plot - Dominant Wave Period Dominant Wave Period (DPD): 4 sec
5-day plot - Air Temperature Air Temperature (ATMP): 62.4 °F
5-day plot - Water Temperature Water Temperature (WTMP): 60.4 °F
5-day plot - Salinity Salinity (SAL): 11.13 psu
5-day plot - Wind Speed at 10 Meters Wind Speed at 10 meters (WSPD10M): 17.5 kts
5-day plot - Wind Speed at 20 Meters Wind Speed at 20 meters (WSPD20M): 19.4 kts
5-day plot -  Wind Speed, Wind Gust and Atmospheric Pressure Combined plot of Wind Speed, Gust, and Air Pressure
Previous observations
TIME
(EDT)
5-day plot - Wind Direction
WDIR
 
5-day plot - Wind Speed
WSPD
kts
5-day plot - Wind Gust
GST
kts
5-day plot - Wave Height
WVHT
ft
5-day plot - Dominant Wave Period
DPD
sec
5-day plot - Average Wave Period
APD
sec
5-day plot - Mean Wave Direction
MWD
 
5-day plot - Atmospheric Pressure
PRES
in
5-day plot - Pressure Tendency
PTDY
in
5-day plot - Air Temperature
ATMP
°F
5-day plot - Water Temperature
WTMP
°F
5-day plot - Dew Point
DEWP
°F
5-day plot - Salinity
SAL
psu
5-day plot - Visibility
VIS
nmi
5-day plot - Tide (above MLLW)
TIDE
ft
2026-05-06 01:30 am S 17.5 21.4 1.3 4---- 62.6 60.4- 11.13--
2026-05-06 01:24 am S 17.5 25.3 1.6 17---- 62.8 60.4- 11.13--
2026-05-06 01:18 am S 17.5 25.3 1.6 17---- 63.1 60.4- 11.12--
2026-05-06 01:12 am S 17.5 25.3 1.6 17---- 62.8 60.4- 11.11--
2026-05-06 01:00 am S 15.5 23.3 2.0 16---- 62.4 60.4- 11.11--
2026-05-06 12:54 am S 15.5 19.4 2.0 16---- 62.2 60.4- 11.12--
2026-05-06 12:48 am S 13.6 17.5 1.3 5---- 61.2 60.4- 11.12--
2026-05-06 12:36 amSSE 15.5 19.4 1.3 5---- 60.4 60.4- 11.12--
2026-05-06 12:30 amSSE 15.5 23.3 1.3 5---- 60.6 60.4- 11.10--
2026-05-06 12:24 amSSE 15.5 21.4 1.6 17---- 60.6 60.4- 11.10--
2026-05-06 12:18 amSSE 15.5 19.4 1.6 17---- 60.4 60.4- 11.10--
2026-05-06 12:12 amSSE 17.5 19.4 1.6 17---- 60.1 60.4- 11.10--
2026-05-06 12:00 amSSE 15.5 21.4 1.0 3---- 60.1 60.4- 11.09--
2026-05-05 11:54 pmSSE 17.5 21.4 1.0 3---- 59.9 60.4- 11.09--
2026-05-05 11:48 pmSSE 17.5 23.3 1.3 3---- 59.9 60.4- 11.09--
2026-05-05 11:36 pmSSE 17.5 23.3 1.3 3---- 59.9 60.6- 11.08--
2026-05-05 11:30 pmSSE 17.5 23.3 1.3 3---- 59.7 60.4- 11.07--
2026-05-05 11:24 pmSSE 17.5 21.4 1.3 17---- 59.7 60.4- 11.07--
2026-05-05 11:18 pmSSE 17.5 23.3 1.3 17---- 59.7 60.4- 11.08--
2026-05-05 11:12 pmSSE 15.5 21.4 1.3 17---- 59.5 60.4- 11.08--
2026-05-05 11:00 pmSSE 15.5 21.4 1.0 2---- 59.4 60.6- 11.09--
2026-05-05 10:54 pmSSE 15.5 19.4 1.0 2---- 59.4 60.6- 11.08--
2026-05-05 10:48 pmSSE 15.5 21.4 1.0 3---- 59.5 60.6- 11.08--
2026-05-05 10:36 pmSSE 15.5 19.4 1.0 3---- 59.5 60.6- 11.09--
2026-05-05 10:30 pmSSE 15.5 21.4 1.0 3---- 59.7 60.6- 11.09--
2026-05-05 10:24 pmSSE 15.5 19.4 1.0 3---- 59.9 60.6- 11.09--
2026-05-05 10:18 pm SE 17.5 21.4 1.0 3---- 59.9 60.6- 11.10--
2026-05-05 10:12 pmSSE 15.5 21.4 1.0 3---- 60.3 60.6- 11.11--
2026-05-05 10:00 pmSSE 15.5 19.4 1.0 4---- 61.7 60.6- 11.11--
2026-05-05 09:54 pmSSE 11.7 17.5 1.0 4---- 63.9 60.6- 11.11--
2026-05-05 09:48 pm S 11.7 17.5 1.3 4---- 64.8 60.6- 11.11--
2026-05-05 09:36 pm S 15.5 19.4 1.3 4---- 65.3 60.6- 11.12--
2026-05-05 09:30 pm S 13.6 19.4 1.3 4---- 65.5 60.6- 11.13--
2026-05-05 09:24 pm S 13.6 17.5 1.3 4---- 65.5 60.6- 11.13--
2026-05-05 09:18 pm S 13.6 17.5 1.3 4---- 65.1 60.6- 11.14--
2026-05-05 09:12 pm S 11.7 15.5 1.3 4---- 65.1 60.6- 11.14--
2026-05-05 09:00 pm S 11.7 15.5 1.6 3---- 65.5 60.4- 11.14--
2026-05-05 08:54 pm S 13.6 15.5 1.6 3---- 66.2 60.6- 11.19--
2026-05-05 08:48 pmSSW 15.5 19.4 2.0 15---- 67.3 60.6- 11.19--
2026-05-05 08:36 pmSSW 15.5 19.4 2.0 15---- 67.5 60.6- 11.19--
2026-05-05 08:30 pmSSW 19.4 23.3 2.0 15---- 67.8 60.6- 11.18--
2026-05-05 08:24 pm S 17.5 23.3 1.6 3---- 67.1 60.6- 11.18--
2026-05-05 08:18 pm S 13.6 17.5 1.6 3---- 64.2 60.6- 11.17--
2026-05-05 08:12 pmSSE 11.7 17.5 1.6 3---- 62.6 60.6- 11.15--
2026-05-05 08:00 pmSSE 11.7 15.5 2.0 3---- 61.7 60.8- 11.16--
2026-05-05 07:54 pmSSE 11.7 15.5 2.0 3---- 61.0 60.8- 11.17--
2026-05-05 07:48 pmSSE 11.7 13.6 2.3 4---- 60.8 60.6- 11.17--
2026-05-05 07:36 pmSSE 13.6 17.5 2.3 4---- 61.2 60.4- 11.21--
2026-05-05 07:30 pmSSE 13.6 21.4 2.3 4---- 61.3 60.6- 11.24--
2026-05-05 07:24 pm SE 13.6 17.5 2.3 3---- 61.2 60.6- 11.24--
2026-05-05 07:18 pm SE 13.6 19.4 2.3 3---- 61.0 60.6- 11.22--
2026-05-05 07:12 pm SE 15.5 19.4 2.3 3---- 61.2 60.6- 11.21--
2026-05-05 07:00 pmSSE 13.6 17.5 2.3 4---- 61.0 60.6- 11.20--
2026-05-05 06:54 pm SE 13.6 17.5 2.3 4---- 61.0 60.6- 11.24--
2026-05-05 06:48 pmSSE 13.6 17.5 2.3 4---- 61.2 60.8- 11.24--
2026-05-05 06:36 pmSSE 13.6 17.5 2.3 4---- 61.2 60.8- 11.21--
2026-05-05 06:30 pmSSE 13.6 17.5 2.3 4---- 61.7 60.8- 11.23--
2026-05-05 06:24 pmSSE 13.6 17.5 2.6 4---- 61.5 60.8- 11.23--
2026-05-05 06:18 pmSSE 13.6 19.4 2.6 4---- 62.2 60.8- 11.25--
2026-05-05 06:12 pmSSE 13.6 19.4 2.6 4---- 63.0 60.8- 11.23--
2026-05-05 06:00 pmSSE 13.6 17.5 3.0 4---- 61.9 60.8- 11.22--
2026-05-05 05:54 pmSSE 15.5 19.4 3.0 4---- 62.1 60.8- 11.22--
2026-05-05 05:48 pmSSE 15.5 19.4 2.6 4---- 62.2 60.8- 11.22--
2026-05-05 05:36 pmSSE 15.5 23.3 2.6 4---- 62.4 60.6- 11.23--
2026-05-05 05:30 pmSSE 15.5 19.4 2.6 4---- 62.2 60.8- 11.23--
2026-05-05 05:24 pmSSE 15.5 19.4 2.6 4---- 62.4 60.8- 11.23--
2026-05-05 05:18 pmSSE 15.5 21.4 2.6 4---- 62.8 61.0- 11.23--
2026-05-05 05:06 pmSSE 15.5 21.4 3.6 17---- 63.7 61.0- 11.19--
2026-05-05 05:00 pm SE 17.5 23.3 3.6 17---- 64.8 61.0- 11.19--
2026-05-05 04:54 pmSSE 13.6 19.4 3.6 17---- 65.1 60.8- 11.19--
2026-05-05 04:48 pmSSE 15.5 19.4 3.3 17---- 66.0 60.6- 11.19--
2026-05-05 04:36 pm S 19.4 23.3 3.3 17---- 71.1 60.6- 11.20--
2026-05-05 04:30 pm S 17.5 25.3 3.3 17---- 70.3 60.6- 11.20--
2026-05-05 04:24 pm S 13.6 15.5 2.6 3---- 69.4 60.6- 11.20--
2026-05-05 04:18 pm S 13.6 17.5 2.6 3---- 69.1 60.6- 11.18--
2026-05-05 04:12 pm S 17.5 21.4 2.6 3---- 70.0 60.6- 11.18--
2026-05-05 04:00 pm S 11.7 15.5 2.6 3---- 65.7 60.6- 11.17--
2026-05-05 03:54 pmSSE 13.6 19.4 2.6 3---- 63.7 60.6- 11.17--
2026-05-05 03:48 pmSSE 15.5 19.4 2.3 3---- 63.1 60.6- 11.17--
2026-05-05 03:36 pmSSE 19.4 25.3 2.3 3---- 64.0 60.6- 11.17--
2026-05-05 03:30 pmSSE 17.5 23.3 2.3 3---- 62.2 60.6- 11.17--
2026-05-05 03:24 pmSSE 15.5 21.4 2.3 3---- 61.9 60.4- 11.17--
2026-05-05 03:18 pmSSE 17.5 23.3 2.3 3---- 61.7 60.6- 11.17--
2026-05-05 03:12 pmSSE 17.5 23.3 2.3 3---- 61.5 60.8- 11.17--
2026-05-05 03:00 pmSSE 17.5 23.3 1.6 16---- 61.5 60.6- 11.16--
2026-05-05 02:54 pmSSE 19.4 23.3 1.6 16---- 61.7 60.6- 11.15--
2026-05-05 02:48 pmSSE 17.5 21.4 0.7----- 61.2 60.6- 11.15--
2026-05-05 02:36 pmSSE 15.5 19.4 0.7----- 61.0 60.6- 11.13--
2026-05-05 02:30 pmSSE 15.5 21.4 0.7----- 61.0 60.8- 11.12--
2026-05-05 02:24 pmSSE 17.5 21.4 0.7----- 61.0 60.8- 11.12--
2026-05-05 02:18 pmSSE 15.5 19.4 0.7----- 60.8 60.8- 11.11--
2026-05-05 02:12 pm S 15.5 19.4 0.7----- 60.8 60.8- 11.10--
2026-05-05 02:00 pm S 13.6 17.5 0.7----- 61.0 60.8- 11.09--
2026-05-05 01:54 pmSSE 13.6 17.5 0.7----- 61.5 60.8- 11.08--
2026-05-05 01:48 pmSSE 15.5 17.5 0.7----- 62.2 60.8- 11.08--
2026-05-05 01:36 pm S 11.7 15.5 0.7----- 65.8 60.8- 11.08--
2026-05-05 01:30 pmSSE 7.8 9.7 0.7----- 64.0 60.8- 11.08--
2026-05-05 01:24 pm S 9.7 11.7 0.7----- 65.3 60.8- 11.08--
2026-05-05 01:18 pm S 9.7 11.7 0.7----- 64.9 60.6- 11.08--
2026-05-05 01:12 pm S 7.8 11.7 0.7----- 64.4 60.6- 11.09--
2026-05-05 01:00 pm S 7.8 9.7 0.7----- 64.4 60.8- 11.06--
2026-05-05 12:54 pmSSW 9.7 9.7 0.7----- 64.9 60.8- 11.05--
2026-05-05 12:48 pmSSW 9.7 15.5 0.7----- 64.9 60.6- 11.05--
2026-05-05 12:36 pmSSW 9.7 13.6 0.7----- 64.6 60.3- 11.06--
2026-05-05 12:30 pmSSW 11.7 13.6 0.7----- 64.8 60.4- 11.17--
2026-05-05 12:24 pmSSW 11.7 13.6 0.7----- 64.4 60.3- 11.17--
2026-05-05 12:18 pmSSW 11.7 13.6 0.7----- 64.2 60.3- 11.18--
2026-05-05 12:06 pmSSW 11.7 15.5 0.7----- 63.9 60.3- 11.17--
2026-05-05 12:00 pmSSW 9.7 11.7 0.7----- 63.9 60.3- 11.17--
2026-05-05 11:54 amSSW 11.7 13.6 0.7----- 63.9 60.3- 11.17--
2026-05-05 11:48 amSSW 13.6 15.5 1.0 3---- 63.5 60.3- 11.17--
2026-05-05 11:36 amSSW 9.7 11.7 1.0 3---- 62.6 60.3- 11.18--
2026-05-05 11:30 amSSW 9.7 11.7 1.0 3---- 62.4 60.3- 11.21--
2026-05-05 11:24 amSSW 11.7 13.6 1.0 3---- 62.4 60.1- 11.21--
2026-05-05 11:18 amSSW 9.7 11.7 1.0 3---- 62.2 59.9- 11.25--
2026-05-05 11:12 am S 7.8 13.6 1.0 3---- 62.1 59.7- 11.22--
2026-05-05 11:00 am S 7.8 11.7 1.0 3---- 62.4 59.5- 11.37--
2026-05-05 10:54 am S 7.8 11.7 1.0 3---- 62.4 59.5- 11.38--
2026-05-05 10:48 amSSE 5.8 9.7 1.3 3---- 62.4 59.5- 11.38--
2026-05-05 10:36 amSSW 9.7 15.5 1.3 3---- 63.0 59.4- 11.39--
2026-05-05 10:30 amSSW 11.7 15.5 1.3 3---- 62.2 59.4- 11.38--
2026-05-05 10:24 am SW 11.7 17.5 1.3 3---- 62.2 59.4- 11.38--
2026-05-05 10:18 am SW 11.7 15.5 1.3 3---- 61.9 59.4- 11.39--
2026-05-05 10:12 amSSW 9.7 13.6 1.3 3---- 61.7 59.4- 11.39--
2026-05-05 10:00 amSSW 11.7 17.5 1.6 3---- 61.7 59.2- 11.40--
2026-05-05 09:54 am SW 11.7 17.5 1.6 3---- 61.9 59.2- 11.39--
2026-05-05 09:48 am SW 11.7 15.5 1.6 3---- 61.5 59.2- 11.39--
2026-05-05 09:36 am SW 13.6 17.5 1.6 3---- 61.2 59.2- 11.38--
2026-05-05 09:30 am SW 11.7 15.5 1.6 3---- 60.8 59.2- 11.37--
2026-05-05 09:24 am SW 11.7 17.5 1.6 3---- 60.8 59.0- 11.37--
2026-05-05 09:18 amWSW 11.7 19.4 1.6 3---- 60.6 59.0- 11.37--
2026-05-05 09:12 amWSW 13.6 19.4 1.6 3---- 60.4 59.0- 11.37--
2026-05-05 09:00 amWSW 13.6 17.5 1.6 3---- 60.3 59.0- 11.37--
2026-05-05 08:54 amWSW 15.5 21.4 1.6 3---- 60.4 59.0- 11.36--
2026-05-05 08:48 amWSW 15.5 21.4 1.6 3---- 60.1 59.0- 11.36--
2026-05-05 08:36 amWSW 15.5 19.4 1.6 3---- 60.1 59.0- 11.36--
2026-05-05 08:30 am SW 15.5 21.4 1.6 3---- 59.9 59.0- 11.36--
2026-05-05 08:24 amWSW 17.5 21.4 2.0 16---- 59.9 59.0- 11.36--
2026-05-05 08:18 amWSW 15.5 21.4 2.0 16---- 59.7 59.0- 11.36--
2026-05-05 08:12 am SW 17.5 21.4 2.0 16---- 59.7 59.0- 11.36--
2026-05-05 08:00 am SW 17.5 21.4 1.6 2---- 59.5 59.0- 11.35--
2026-05-05 07:54 am SW 15.5 19.4 1.6 2---- 59.5 59.0- 11.35--
2026-05-05 07:48 am SW 17.5 21.4 1.6 2---- 59.4 59.0- 11.35--
2026-05-05 07:36 am SW 15.5 21.4 1.6 4---- 59.2 59.0- 11.35--
2026-05-05 07:30 am SW 15.5 19.4 1.6 4---- 59.0 59.0- 11.35--
2026-05-05 07:24 am SW 17.5 21.4 2.0 17---- 59.2 59.0- 11.35--
2026-05-05 07:18 am SW 15.5 19.4 2.0 17---- 59.0 59.0- 11.35--
2026-05-05 07:12 am SW 17.5 23.3 2.0 17---- 59.2 59.0- 11.33--
2026-05-05 07:00 am SW 15.5 19.4 1.6 3---- 58.8 58.8- 11.30--
2026-05-05 06:54 am SW 15.5 21.4 1.6 3---- 58.8 58.8- 11.24--
2026-05-05 06:48 am SW 15.5 19.4 1.6 3---- 58.8 58.8- 11.24--
2026-05-05 06:36 am SW 17.5 21.4 2.0 3---- 58.6 58.8- 11.21--
2026-05-05 06:30 am SW 17.5 23.3 2.0 3---- 59.0 58.8- 11.19--
2026-05-05 06:24 am SW 17.5 23.3 1.6 3---- 58.8 58.8- 11.19--
2026-05-05 06:18 am SW 17.5 21.4 1.6 3---- 59.0 59.0- 11.18--
2026-05-05 06:12 am SW 17.5 23.3 1.6 3---- 59.0 59.0- 11.17--
2026-05-05 06:00 am SW 17.5 23.3 2.0 3---- 58.8 59.0- 11.15--
2026-05-05 05:54 am SW 17.5 23.3 2.0 3---- 58.5 59.0- 11.14--
2026-05-05 05:48 am SW 17.5 21.4 2.0 3---- 58.5 59.0- 11.14--
2026-05-05 05:36 am SW 19.4 23.3 2.0 2---- 59.4 59.0- 11.13--
2026-05-05 05:30 am SW 19.4 25.3 2.0 2---- 59.5 59.2- 11.12--
2026-05-05 05:24 am SW 19.4 23.3 1.6 3---- 59.4 59.2- 11.12--
2026-05-05 05:18 am SW 19.4 23.3 1.6 3---- 59.5 59.2- 11.12--
2026-05-05 05:12 am SW 19.4 25.3 1.6 3---- 59.5 59.2- 11.12--
2026-05-05 05:00 am SW 19.4 23.3 1.6 2---- 59.7 59.2- 11.12--
2026-05-05 04:54 am SW 19.4 23.3 1.6 2---- 59.7 59.0- 11.08--
2026-05-05 04:48 am SW 17.5 23.3 1.6 2---- 59.5 59.0- 11.08--
2026-05-05 04:36 am SW 19.4 25.3 2.0 3---- 59.5 59.0- 11.05--
2026-05-05 04:30 am SW 17.5 21.4 2.0 3---- 59.5 59.0- 11.04--
2026-05-05 04:24 am SW 17.5 23.3 1.6 3---- 59.5 59.0- 11.04--
2026-05-05 04:18 am SW 17.5 23.3 1.6 3---- 59.4 59.0- 11.04--
2026-05-05 04:06 am SW 15.5 21.4 2.0 3---- 59.4 59.0- 11.03--
2026-05-05 04:00 am SW 15.5 19.4 2.0 3---- 59.4 59.0- 11.03--
2026-05-05 03:54 am SW 15.5 19.4 2.0 3---- 59.4 59.0- 11.03--
2026-05-05 03:48 am SW 17.5 21.4 2.0 3---- 59.7 59.0- 11.02--
2026-05-05 03:42 am SW 17.5 21.4 2.3 17---- 59.5 59.0- 11.02--
2026-05-05 03:36 am SW 17.5 23.3 2.3 17---- 59.7 59.0- 11.01--
2026-05-05 03:30 am SW 15.5 21.4 2.3 17---- 59.7 59.0- 11.01--
2026-05-05 03:24 am SW 17.5 21.4 2.0 3---- 59.9 59.0- 11.00--
2026-05-05 03:18 am SW 17.5 23.3 2.0 3---- 60.1 59.0- 11.01--
2026-05-05 03:06 am SW 19.4 25.3 1.6 3---- 60.1 59.0- 10.99--
2026-05-05 03:00 am SW 19.4 25.3 1.6 3---- 60.1 58.8- 10.97--
2026-05-05 02:54 am SW 19.4 25.3 1.6 3---- 59.9 58.8- 10.97--
2026-05-05 02:48 am SW 19.4 25.3 1.6 3---- 60.4 58.8- 10.96--
2026-05-05 02:42 am SW 19.4 25.3 1.6 3---- 60.3 58.8- 10.94--
2026-05-05 02:36 amSSW 21.4 27.2 1.6 3---- 60.6 58.8- 10.93--
2026-05-05 02:30 amSSW 21.4 27.2 1.6 3---- 60.6 58.8- 10.91--
2026-05-05 02:24 am SW 21.4 29.1 1.0 2---- 60.4 58.8- 10.88--
2026-05-05 02:18 amSSW 19.4 25.3 1.0 2---- 60.3 58.8- 10.86--
2026-05-05 02:12 amSSW 17.5 23.3 1.0 2---- 60.1 58.8- 10.84--
2026-05-05 02:00 amSSW 13.6 17.5 1.0 2---- 59.9 58.8- 10.82--

Ocean Conditions at 44062 as of
(1:36 am EDT)
0536 GMT on 05/06/2026:

These oceanographic data are displayed in rounded times.

     

Click on the graph icon in the table below to see a time series plot of the last five days of that observation.

Depth (DEPTH): 3.3 ft
5-day plot - Ocean Temperature Ocean Temperature (OTMP):60.44 °F
5-day plot - Salinity Salinity (SAL):11.13 psu
Previous observations
TIME
(EDT)
DEPTH
ft
5-day plot - Ocean Temperature
OTMP
°F
5-day plot - Conductivity
COND
mS/cm
5-day plot - Salinity
SAL
psu
5-day plot - Oxygen Saturation
O2%
%
5-day plot - Oxygen Concentration
O2PPM
ppm
5-day plot - Chlorophyll
CLCON
ug/l
5-day plot - Turbidity
TURB
FTU
5-day plot - pH
PH
 
5-day plot - Eh
EH
mV
2026-05-06 01:30 am 3.360.42-11.12------
2026-05-06 01:24 am 3.360.40-11.11------
2026-05-06 01:18 am 3.360.40-11.11------
2026-05-06 01:12 am 3.360.40-11.11------
2026-05-06 01:00 am 3.360.42-11.12------
2026-05-06 12:54 am 3.360.44-11.12------
2026-05-06 12:48 am 3.360.42-11.12------
2026-05-06 12:36 am 3.360.42-11.10------
2026-05-06 12:30 am 3.360.44-11.10------
2026-05-06 12:24 am 3.360.44-11.10------
2026-05-06 12:18 am 3.360.44-11.09------
2026-05-06 12:12 am 3.360.44-11.09------
2026-05-06 12:00 am 3.360.48-11.09------
2026-05-05 11:54 pm 3.360.49-11.09------
2026-05-05 11:48 pm 3.360.51-11.08------
2026-05-05 11:36 pm 3.360.53-11.07------
2026-05-05 11:30 pm 3.360.53-11.08------
2026-05-05 11:24 pm 3.360.51-11.08------
2026-05-05 11:18 pm 3.360.49-11.08------
2026-05-05 11:12 pm 3.360.49-11.09------
2026-05-05 11:00 pm 3.360.55-11.08------
2026-05-05 10:54 pm 3.360.55-11.09------
2026-05-05 10:48 pm 3.360.55-11.09------
2026-05-05 10:36 pm 3.360.57-11.09------
2026-05-05 10:30 pm 3.360.57-11.10------
2026-05-05 10:24 pm 3.360.58-11.11------
2026-05-05 10:18 pm 3.360.60-11.10------
2026-05-05 10:12 pm 3.360.62-11.11------
2026-05-05 10:00 pm 3.360.64-11.11------
2026-05-05 09:54 pm 3.360.66-11.12------
2026-05-05 09:48 pm 3.360.64-11.12------
2026-05-05 09:36 pm 3.360.62-11.13------
2026-05-05 09:30 pm 3.360.62-11.14------
2026-05-05 09:24 pm 3.360.62-11.14------
2026-05-05 09:18 pm 3.360.62-11.14------
2026-05-05 09:12 pm 3.360.64-11.14------
2026-05-05 09:00 pm 3.360.51-11.19------
2026-05-05 08:54 pm 3.360.57-11.18------
2026-05-05 08:48 pm 3.360.57-11.19------
2026-05-05 08:36 pm 3.360.62-11.18------
2026-05-05 08:30 pm 3.360.66-11.17------
2026-05-05 08:24 pm 3.360.71-11.15------
2026-05-05 08:18 pm 3.360.67-11.17------
2026-05-05 08:12 pm 3.360.69-11.16------
2026-05-05 08:00 pm 3.360.73-11.17------
2026-05-05 07:54 pm 3.360.75-11.17------
2026-05-05 07:48 pm 3.360.64-11.21------
2026-05-05 07:36 pm 3.360.48-11.24------
2026-05-05 07:30 pm 3.360.57-11.22------
2026-05-05 07:24 pm 3.360.66-11.21------
2026-05-05 07:18 pm 3.360.71-11.20------
2026-05-05 07:12 pm 3.360.71-11.20------
2026-05-05 07:00 pm 3.360.58-11.24------
2026-05-05 06:54 pm 3.360.66-11.23------
2026-05-05 06:48 pm 3.360.75-11.21------
2026-05-05 06:36 pm 3.360.71-11.23------
2026-05-05 06:30 pm 3.360.73-11.25------
2026-05-05 06:24 pm 3.360.84-11.23------
2026-05-05 06:18 pm 3.360.89-11.22------
2026-05-05 06:12 pm 3.360.89-11.22------
2026-05-05 06:00 pm 3.360.85-11.22------
2026-05-05 05:54 pm 3.360.87-11.22------
2026-05-05 05:48 pm 3.360.78-11.23------
2026-05-05 05:36 pm 3.360.66-11.23------
2026-05-05 05:30 pm 3.360.71-11.23------
2026-05-05 05:24 pm 3.360.84-11.20------
2026-05-05 05:18 pm 3.360.91-11.19------
2026-05-05 05:06 pm 3.361.03-11.19------
2026-05-05 05:00 pm 3.360.94-11.19------
2026-05-05 04:54 pm 3.360.84-11.19------
2026-05-05 04:48 pm 3.360.62-11.20------
2026-05-05 04:36 pm 3.360.64-11.20------
2026-05-05 04:30 pm 3.360.69-11.18------
2026-05-05 04:24 pm 3.360.69-11.18------
2026-05-05 04:18 pm 3.360.69-11.17------
2026-05-05 04:12 pm 3.360.69-11.17------
2026-05-05 04:00 pm 3.360.67-11.17------
2026-05-05 03:54 pm 3.360.66-11.17------
2026-05-05 03:48 pm 3.360.62-11.17------
2026-05-05 03:36 pm 3.360.57-11.17------
2026-05-05 03:30 pm 3.360.53-11.17------
2026-05-05 03:24 pm 3.360.53-11.17------
2026-05-05 03:18 pm 3.360.58-11.18------
2026-05-05 03:12 pm 3.360.78-11.16------
2026-05-05 03:00 pm 3.360.66-11.15------
2026-05-05 02:54 pm 3.360.69-11.13------
2026-05-05 02:48 pm 3.360.66-11.13------
2026-05-05 02:36 pm 3.360.71-11.12------
2026-05-05 02:30 pm 3.360.78-11.11------
2026-05-05 02:24 pm 3.360.82-11.10------
2026-05-05 02:18 pm 3.360.82-11.09------
2026-05-05 02:12 pm 3.360.80-11.09------
2026-05-05 02:00 pm 3.360.76-11.08------
2026-05-05 01:54 pm 3.360.82-11.07------
2026-05-05 01:48 pm 3.360.80-11.08------
2026-05-05 01:36 pm 3.360.82-11.08------
2026-05-05 01:30 pm 3.360.89-11.08------
2026-05-05 01:24 pm 3.360.76-11.09------
2026-05-05 01:18 pm 3.360.66-11.07------
2026-05-05 01:12 pm 3.360.64-11.06------
2026-05-05 01:00 pm 3.360.73-11.05------
2026-05-05 12:54 pm 3.360.75-11.05------
2026-05-05 12:48 pm 3.360.67-11.06------
2026-05-05 12:36 pm 3.360.26-11.17------
2026-05-05 12:30 pm 3.360.39-11.18------
2026-05-05 12:24 pm 3.360.33-11.18------
2026-05-05 12:18 pm 3.360.21-11.17------
2026-05-05 12:06 pm 3.360.22-11.17------
2026-05-05 12:00 pm 3.360.24-11.17------
2026-05-05 11:54 am 3.360.26-11.16------
2026-05-05 11:48 am 3.360.31-11.18------
2026-05-05 11:36 am 3.360.30-11.21------
2026-05-05 11:30 am 3.360.19-11.25------
2026-05-05 11:24 am 3.360.15-11.22------
2026-05-05 11:18 am 3.359.88-11.36------
2026-05-05 11:12 am 3.359.77-11.37------
2026-05-05 11:00 am 3.359.63-11.38------
2026-05-05 10:54 am 3.359.56-11.39------
2026-05-05 10:48 am 3.359.49-11.39------
2026-05-05 10:36 am 3.359.41-11.38------
2026-05-05 10:30 am 3.359.34-11.39------
2026-05-05 10:24 am 3.359.34-11.39------
2026-05-05 10:18 am 3.359.29-11.39------
2026-05-05 10:12 am 3.359.27-11.40------
2026-05-05 10:00 am 3.359.20-11.39------
2026-05-05 09:54 am 3.359.20-11.39------
2026-05-05 09:48 am 3.359.16-11.38------
2026-05-05 09:36 am 3.359.14-11.37------
2026-05-05 09:30 am 3.359.13-11.37------
2026-05-05 09:24 am 3.359.07-11.37------
2026-05-05 09:18 am 3.359.07-11.37------
2026-05-05 09:12 am 3.359.05-11.37------
2026-05-05 09:00 am 3.359.04-11.36------
2026-05-05 08:54 am 3.359.02-11.36------
2026-05-05 08:48 am 3.359.02-11.36------
2026-05-05 08:36 am 3.359.00-11.36------
2026-05-05 08:30 am 3.358.98-11.36------
2026-05-05 08:24 am 3.358.96-11.36------
2026-05-05 08:18 am 3.358.96-11.35------
2026-05-05 08:12 am 3.358.95-11.35------
2026-05-05 08:00 am 3.358.93-11.35------
2026-05-05 07:54 am 3.358.95-11.35------
2026-05-05 07:48 am 3.358.95-11.35------
2026-05-05 07:36 am 3.358.93-11.35------
2026-05-05 07:30 am 3.358.95-11.35------
2026-05-05 07:24 am 3.358.96-11.33------
2026-05-05 07:18 am 3.358.93-11.31------
2026-05-05 07:12 am 3.358.91-11.30------
2026-05-05 07:00 am 3.358.87-11.24------
2026-05-05 06:54 am 3.358.86-11.25------
2026-05-05 06:48 am 3.358.87-11.21------
2026-05-05 06:36 am 3.358.87-11.19------
2026-05-05 06:30 am 3.358.89-11.18------
2026-05-05 06:24 am 3.358.91-11.17------
2026-05-05 06:18 am 3.358.91-11.16------
2026-05-05 06:12 am 3.358.95-11.15------
2026-05-05 06:00 am 3.359.00-11.14------
2026-05-05 05:54 am 3.359.02-11.13------
2026-05-05 05:48 am 3.359.05-11.13------
2026-05-05 05:36 am 3.359.09-11.12------
2026-05-05 05:30 am 3.359.09-11.12------
2026-05-05 05:24 am 3.359.11-11.12------
2026-05-05 05:18 am 3.359.11-11.11------
2026-05-05 05:12 am 3.359.11-11.12------
2026-05-05 05:00 am 3.359.13-11.08------
2026-05-05 04:54 am 3.359.09-11.07------
2026-05-05 04:48 am 3.359.05-11.05------
2026-05-05 04:36 am 3.359.05-11.04------
2026-05-05 04:30 am 3.359.02-11.04------
2026-05-05 04:24 am 3.359.00-11.03------
2026-05-05 04:18 am 3.358.98-11.03------
2026-05-05 04:06 am 3.358.98-11.03------
2026-05-05 04:00 am 3.358.98-11.02------
2026-05-05 03:54 am 3.358.98-11.02------
2026-05-05 03:48 am 3.358.98-11.01------
2026-05-05 03:42 am 3.358.96-11.01------
2026-05-05 03:36 am 3.358.96-11.00------
2026-05-05 03:30 am 3.358.95-11.01------
2026-05-05 03:24 am 3.358.95-11.01------
2026-05-05 03:18 am 3.358.95-10.99------
2026-05-05 03:06 am 3.358.91-10.97------
2026-05-05 03:00 am 3.358.91-10.96------
2026-05-05 02:54 am 3.358.89-10.94------
2026-05-05 02:48 am 3.358.89-10.93------
2026-05-05 02:42 am 3.358.86-10.91------
2026-05-05 02:36 am 3.358.84-10.88------
2026-05-05 02:30 am 3.358.84-10.86------
2026-05-05 02:24 am 3.358.86-10.84------
2026-05-05 02:18 am 3.358.84-10.83------
2026-05-05 02:12 am 3.358.84-10.82------
2026-05-05 02:00 am 3.358.84-10.81------